sensor_id;sensor_type;location;lat;lon;timestamp;P1;durP1;ratioP1;P2;durP2;ratioP2
21110;SDS011;10713;51.912;4.494;2023-07-31T00:01:56;28.92;;;5.93;;
21110;SDS011;10713;51.912;4.494;2023-07-31T00:04:22;26.65;;;4.88;;
21110;SDS011;10713;51.912;4.494;2023-07-31T00:06:47;20.33;;;4.50;;
21110;SDS011;10713;51.912;4.494;2023-07-31T00:09:12;15.55;;;3.38;;
21110;SDS011;10713;51.912;4.494;2023-07-31T00:11:38;20.92;;;4.57;;
21110;SDS011;10713;51.912;4.494;2023-07-31T00:14:03;17.65;;;4.20;;
21110;SDS011;10713;51.912;4.494;2023-07-31T00:16:29;22.05;;;4.25;;
21110;SDS011;10713;51.912;4.494;2023-07-31T00:18:54;28.23;;;4.65;;
21110;SDS011;10713;51.912;4.494;2023-07-31T00:21:19;20.58;;;4.53;;
21110;SDS011;10713;51.912;4.494;2023-07-31T00:23:46;19.58;;;4.72;;
21110;SDS011;10713;51.912;4.494;2023-07-31T00:26:11;29.42;;;5.00;;
21110;SDS011;10713;51.912;4.494;2023-07-31T00:28:36;25.48;;;4.57;;
21110;SDS011;10713;51.912;4.494;2023-07-31T00:31:01;33.70;;;5.82;;
21110;SDS011;10713;51.912;4.494;2023-07-31T00:33:28;22.33;;;5.13;;
21110;SDS011;10713;51.912;4.494;2023-07-31T00:35:54;19.85;;;5.00;;
21110;SDS011;10713;51.912;4.494;2023-07-31T00:38:20;22.85;;;5.07;;
21110;SDS011;10713;51.912;4.494;2023-07-31T00:40:45;27.58;;;5.72;;
21110;SDS011;10713;51.912;4.494;2023-07-31T00:43:10;27.13;;;6.00;;
21110;SDS011;10713;51.912;4.494;2023-07-31T00:45:36;29.02;;;4.60;;
21110;SDS011;10713;51.912;4.494;2023-07-31T00:48:01;27.50;;;5.45;;
21110;SDS011;10713;51.912;4.494;2023-07-31T00:50:27;19.20;;;4.93;;
21110;SDS011;10713;51.912;4.494;2023-07-31T00:52:53;15.70;;;3.63;;
21110;SDS011;10713;51.912;4.494;2023-07-31T00:55:19;10.75;;;3.75;;
21110;SDS011;10713;51.912;4.494;2023-07-31T00:57:45;12.93;;;3.53;;
21110;SDS011;10713;51.912;4.494;2023-07-31T01:00:10;10.10;;;2.92;;
21110;SDS011;10713;51.912;4.494;2023-07-31T01:02:36;7.53;;;2.53;;
21110;SDS011;10713;51.912;4.494;2023-07-31T01:05:02;4.63;;;2.28;;
21110;SDS011;10713;51.912;4.494;2023-07-31T01:10:25;11.82;;;3.28;;
21110;SDS011;10713;51.912;4.494;2023-07-31T01:12:54;16.05;;;3.38;;
21110;SDS011;10713;51.912;4.494;2023-07-31T01:15:21;22.77;;;3.72;;
21110;SDS011;10713;51.912;4.494;2023-07-31T01:17:46;26.58;;;4.63;;
21110;SDS011;10713;51.912;4.494;2023-07-31T01:20:13;19.60;;;3.95;;
21110;SDS011;10713;51.912;4.494;2023-07-31T01:25:31;15.70;;;3.80;;
21110;SDS011;10713;51.912;4.494;2023-07-31T01:28:14;20.67;;;3.90;;
21110;SDS011;10713;51.912;4.494;2023-07-31T01:30:46;21.80;;;4.05;;
21110;SDS011;10713;51.912;4.494;2023-07-31T01:33:14;14.73;;;4.40;;
21110;SDS011;10713;51.912;4.494;2023-07-31T01:35:42;16.05;;;3.88;;
21110;SDS011;10713;51.912;4.494;2023-07-31T01:38:10;21.88;;;4.18;;
21110;SDS011;10713;51.912;4.494;2023-07-31T01:40:35;17.42;;;4.03;;
21110;SDS011;10713;51.912;4.494;2023-07-31T01:43:01;18.40;;;4.50;;
21110;SDS011;10713;51.912;4.494;2023-07-31T01:45:26;20.88;;;5.18;;
21110;SDS011;10713;51.912;4.494;2023-07-31T01:47:52;22.30;;;4.82;;
21110;SDS011;10713;51.912;4.494;2023-07-31T01:50:17;14.68;;;3.17;;
21110;SDS011;10713;51.912;4.494;2023-07-31T01:52:42;16.13;;;4.45;;
21110;SDS011;10713;51.912;4.494;2023-07-31T01:55:08;20.08;;;3.88;;
21110;SDS011;10713;51.912;4.494;2023-07-31T01:57:33;16.83;;;4.80;;
21110;SDS011;10713;51.912;4.494;2023-07-31T01:59:59;30.58;;;5.57;;
21110;SDS011;10713;51.912;4.494;2023-07-31T02:02:24;20.55;;;4.63;;
21110;SDS011;10713;51.912;4.494;2023-07-31T02:04:49;25.98;;;4.65;;
21110;SDS011;10713;51.912;4.494;2023-07-31T02:07:15;19.10;;;4.35;;
21110;SDS011;10713;51.912;4.494;2023-07-31T02:09:40;26.20;;;5.25;;
21110;SDS011;10713;51.912;4.494;2023-07-31T02:12:06;18.77;;;4.60;;
21110;SDS011;10713;51.912;4.494;2023-07-31T02:14:33;19.08;;;4.20;;
21110;SDS011;10713;51.912;4.494;2023-07-31T02:16:59;25.90;;;4.90;;
21110;SDS011;10713;51.912;4.494;2023-07-31T02:19:24;25.13;;;4.70;;
21110;SDS011;10713;51.912;4.494;2023-07-31T02:21:49;15.27;;;4.03;;
21110;SDS011;10713;51.912;4.494;2023-07-31T02:24:15;17.77;;;4.65;;
21110;SDS011;10713;51.912;4.494;2023-07-31T02:26:40;21.23;;;4.35;;
21110;SDS011;10713;51.912;4.494;2023-07-31T02:29:07;18.58;;;4.47;;
21110;SDS011;10713;51.912;4.494;2023-07-31T02:31:32;21.10;;;4.43;;
21110;SDS011;10713;51.912;4.494;2023-07-31T02:33:57;22.38;;;4.88;;
21110;SDS011;10713;51.912;4.494;2023-07-31T02:36:23;16.40;;;4.05;;
21110;SDS011;10713;51.912;4.494;2023-07-31T02:38:48;20.10;;;3.83;;
21110;SDS011;10713;51.912;4.494;2023-07-31T02:41:13;18.85;;;4.32;;
21110;SDS011;10713;51.912;4.494;2023-07-31T02:43:39;10.75;;;3.60;;
21110;SDS011;10713;51.912;4.494;2023-07-31T02:46:04;20.35;;;4.40;;
21110;SDS011;10713;51.912;4.494;2023-07-31T02:48:30;12.35;;;3.92;;
21110;SDS011;10713;51.912;4.494;2023-07-31T02:50:55;21.63;;;5.07;;
21110;SDS011;10713;51.912;4.494;2023-07-31T02:53:20;21.08;;;3.80;;
21110;SDS011;10713;51.912;4.494;2023-07-31T02:55:46;19.65;;;4.43;;
21110;SDS011;10713;51.912;4.494;2023-07-31T02:58:12;15.73;;;4.28;;
21110;SDS011;10713;51.912;4.494;2023-07-31T03:00:41;21.63;;;4.85;;
21110;SDS011;10713;51.912;4.494;2023-07-31T03:03:08;17.60;;;4.00;;
21110;SDS011;10713;51.912;4.494;2023-07-31T03:05:33;20.35;;;4.57;;
21110;SDS011;10713;51.912;4.494;2023-07-31T03:07:58;17.83;;;4.20;;
21110;SDS011;10713;51.912;4.494;2023-07-31T03:10:23;21.08;;;4.43;;
21110;SDS011;10713;51.912;4.494;2023-07-31T03:12:49;14.25;;;4.75;;
21110;SDS011;10713;51.912;4.494;2023-07-31T03:15:14;9.48;;;3.38;;
21110;SDS011;10713;51.912;4.494;2023-07-31T03:17:39;20.58;;;4.00;;
21110;SDS011;10713;51.912;4.494;2023-07-31T03:20:05;20.42;;;4.93;;
21110;SDS011;10713;51.912;4.494;2023-07-31T03:22:31;22.13;;;6.15;;
21110;SDS011;10713;51.912;4.494;2023-07-31T03:24:56;15.65;;;5.10;;
21110;SDS011;10713;51.912;4.494;2023-07-31T03:27:21;18.70;;;5.68;;
21110;SDS011;10713;51.912;4.494;2023-07-31T03:29:47;24.92;;;7.53;;
21110;SDS011;10713;51.912;4.494;2023-07-31T03:32:14;31.77;;;11.35;;
21110;SDS011;10713;51.912;4.494;2023-07-31T03:34:40;22.92;;;9.70;;
21110;SDS011;10713;51.912;4.494;2023-07-31T03:37:05;25.85;;;13.30;;
21110;SDS011;10713;51.912;4.494;2023-07-31T03:39:30;37.60;;;16.27;;
21110;SDS011;10713;51.912;4.494;2023-07-31T03:41:56;20.58;;;10.35;;
21110;SDS011;10713;51.912;4.494;2023-07-31T03:44:21;29.30;;;15.27;;
21110;SDS011;10713;51.912;4.494;2023-07-31T03:46:46;18.73;;;11.80;;
21110;SDS011;10713;51.912;4.494;2023-07-31T03:49:12;19.30;;;10.70;;
21110;SDS011;10713;51.912;4.494;2023-07-31T03:51:37;26.40;;;10.70;;
21110;SDS011;10713;51.912;4.494;2023-07-31T03:54:02;20.13;;;8.77;;
21110;SDS011;10713;51.912;4.494;2023-07-31T03:56:28;23.88;;;11.65;;
21110;SDS011;10713;51.912;4.494;2023-07-31T03:58:53;24.92;;;14.98;;
21110;SDS011;10713;51.912;4.494;2023-07-31T04:01:19;24.17;;;11.30;;
21110;SDS011;10713;51.912;4.494;2023-07-31T04:03:45;28.45;;;15.00;;
21110;SDS011;10713;51.912;4.494;2023-07-31T04:06:10;24.23;;;11.25;;
21110;SDS011;10713;51.912;4.494;2023-07-31T04:08:35;22.35;;;11.10;;
21110;SDS011;10713;51.912;4.494;2023-07-31T04:11:01;21.52;;;10.27;;
21110;SDS011;10713;51.912;4.494;2023-07-31T04:13:26;16.05;;;8.35;;
21110;SDS011;10713;51.912;4.494;2023-07-31T04:15:53;15.52;;;8.35;;
21110;SDS011;10713;51.912;4.494;2023-07-31T04:18:19;14.13;;;8.18;;
21110;SDS011;10713;51.912;4.494;2023-07-31T04:20:45;13.65;;;6.55;;
21110;SDS011;10713;51.912;4.494;2023-07-31T04:23:10;11.73;;;4.88;;
21110;SDS011;10713;51.912;4.494;2023-07-31T04:25:35;13.32;;;5.55;;
21110;SDS011;10713;51.912;4.494;2023-07-31T04:28:01;12.82;;;4.25;;
21110;SDS011;10713;51.912;4.494;2023-07-31T04:30:26;15.05;;;5.10;;
21110;SDS011;10713;51.912;4.494;2023-07-31T04:32:52;13.38;;;5.28;;
21110;SDS011;10713;51.912;4.494;2023-07-31T04:35:17;11.13;;;4.63;;
21110;SDS011;10713;51.912;4.494;2023-07-31T04:37:42;14.43;;;5.03;;
21110;SDS011;10713;51.912;4.494;2023-07-31T04:40:09;13.93;;;4.18;;
21110;SDS011;10713;51.912;4.494;2023-07-31T04:42:35;12.43;;;4.63;;
21110;SDS011;10713;51.912;4.494;2023-07-31T04:45:00;10.82;;;4.03;;
21110;SDS011;10713;51.912;4.494;2023-07-31T04:47:25;9.35;;;3.83;;
21110;SDS011;10713;51.912;4.494;2023-07-31T04:49:51;12.30;;;4.18;;
21110;SDS011;10713;51.912;4.494;2023-07-31T04:52:16;13.65;;;3.65;;
21110;SDS011;10713;51.912;4.494;2023-07-31T04:54:41;13.93;;;3.40;;
21110;SDS011;10713;51.912;4.494;2023-07-31T04:57:07;13.90;;;4.00;;
21110;SDS011;10713;51.912;4.494;2023-07-31T04:59:32;15.13;;;4.30;;
21110;SDS011;10713;51.912;4.494;2023-07-31T05:01:58;12.95;;;3.50;;
21110;SDS011;10713;51.912;4.494;2023-07-31T05:04:23;6.28;;;2.92;;
21110;SDS011;10713;51.912;4.494;2023-07-31T05:06:48;10.43;;;3.53;;
21110;SDS011;10713;51.912;4.494;2023-07-31T05:09:14;10.10;;;3.97;;
21110;SDS011;10713;51.912;4.494;2023-07-31T05:11:39;13.43;;;3.38;;
21110;SDS011;10713;51.912;4.494;2023-07-31T05:14:05;11.40;;;3.67;;
21110;SDS011;10713;51.912;4.494;2023-07-31T05:16:31;12.32;;;3.85;;
21110;SDS011;10713;51.912;4.494;2023-07-31T05:18:56;8.82;;;3.00;;
21110;SDS011;10713;51.912;4.494;2023-07-31T05:21:21;5.40;;;2.90;;
21110;SDS011;10713;51.912;4.494;2023-07-31T05:23:47;9.07;;;3.88;;
21110;SDS011;10713;51.912;4.494;2023-07-31T05:26:13;5.80;;;2.85;;
21110;SDS011;10713;51.912;4.494;2023-07-31T05:28:38;7.00;;;2.70;;
21110;SDS011;10713;51.912;4.494;2023-07-31T05:31:03;11.60;;;3.42;;
21110;SDS011;10713;51.912;4.494;2023-07-31T05:33:30;9.60;;;3.45;;
21110;SDS011;10713;51.912;4.494;2023-07-31T05:35:56;11.15;;;3.45;;
21110;SDS011;10713;51.912;4.494;2023-07-31T05:38:21;8.38;;;3.10;;
21110;SDS011;10713;51.912;4.494;2023-07-31T05:40:47;8.55;;;2.65;;
21110;SDS011;10713;51.912;4.494;2023-07-31T05:43:12;9.13;;;2.92;;
21110;SDS011;10713;51.912;4.494;2023-07-31T05:45:38;7.30;;;3.17;;
21110;SDS011;10713;51.912;4.494;2023-07-31T05:48:03;5.13;;;2.90;;
21110;SDS011;10713;51.912;4.494;2023-07-31T05:50:29;7.20;;;3.15;;
21110;SDS011;10713;51.912;4.494;2023-07-31T05:52:55;10.65;;;3.85;;
21110;SDS011;10713;51.912;4.494;2023-07-31T05:55:20;9.38;;;3.42;;
21110;SDS011;10713;51.912;4.494;2023-07-31T05:57:46;6.88;;;3.00;;
21110;SDS011;10713;51.912;4.494;2023-07-31T06:00:11;6.95;;;3.05;;
21110;SDS011;10713;51.912;4.494;2023-07-31T06:02:38;10.70;;;3.50;;
21110;SDS011;10713;51.912;4.494;2023-07-31T06:05:04;8.82;;;2.95;;
21110;SDS011;10713;51.912;4.494;2023-07-31T06:07:31;6.78;;;2.92;;
21110;SDS011;10713;51.912;4.494;2023-07-31T06:09:56;6.90;;;3.30;;
21110;SDS011;10713;51.912;4.494;2023-07-31T06:12:26;5.72;;;2.78;;
21110;SDS011;10713;51.912;4.494;2023-07-31T06:14:52;6.28;;;2.80;;
21110;SDS011;10713;51.912;4.494;2023-07-31T06:17:17;14.35;;;3.08;;
21110;SDS011;10713;51.912;4.494;2023-07-31T06:19:43;7.75;;;2.95;;
21110;SDS011;10713;51.912;4.494;2023-07-31T06:22:08;4.80;;;2.70;;
21110;SDS011;10713;51.912;4.494;2023-07-31T06:24:34;7.40;;;2.58;;
21110;SDS011;10713;51.912;4.494;2023-07-31T06:26:59;3.08;;;2.13;;
21110;SDS011;10713;51.912;4.494;2023-07-31T06:29:24;8.15;;;2.58;;
21110;SDS011;10713;51.912;4.494;2023-07-31T06:31:50;6.70;;;2.40;;
21110;SDS011;10713;51.912;4.494;2023-07-31T06:34:15;7.95;;;2.70;;
21110;SDS011;10713;51.912;4.494;2023-07-31T06:36:41;6.78;;;2.97;;
21110;SDS011;10713;51.912;4.494;2023-07-31T06:39:07;3.78;;;2.50;;
21110;SDS011;10713;51.912;4.494;2023-07-31T06:41:32;6.68;;;2.40;;
21110;SDS011;10713;51.912;4.494;2023-07-31T06:43:57;4.75;;;2.70;;
21110;SDS011;10713;51.912;4.494;2023-07-31T06:46:23;6.93;;;2.53;;
21110;SDS011;10713;51.912;4.494;2023-07-31T06:48:48;4.70;;;2.40;;
21110;SDS011;10713;51.912;4.494;2023-07-31T06:51:14;7.65;;;2.67;;
21110;SDS011;10713;51.912;4.494;2023-07-31T06:53:39;5.50;;;2.83;;
21110;SDS011;10713;51.912;4.494;2023-07-31T06:56:05;5.30;;;2.38;;
21110;SDS011;10713;51.912;4.494;2023-07-31T06:58:30;8.30;;;2.60;;
21110;SDS011;10713;51.912;4.494;2023-07-31T07:00:55;4.80;;;2.45;;
21110;SDS011;10713;51.912;4.494;2023-07-31T07:03:21;5.18;;;2.53;;
21110;SDS011;10713;51.912;4.494;2023-07-31T07:05:46;6.35;;;2.78;;
21110;SDS011;10713;51.912;4.494;2023-07-31T07:08:12;4.15;;;2.20;;
21110;SDS011;10713;51.912;4.494;2023-07-31T07:10:37;7.13;;;2.58;;
21110;SDS011;10713;51.912;4.494;2023-07-31T07:13:02;4.15;;;2.50;;
21110;SDS011;10713;51.912;4.494;2023-07-31T07:15:28;6.93;;;2.35;;
21110;SDS011;10713;51.912;4.494;2023-07-31T07:17:54;5.50;;;2.25;;
21110;SDS011;10713;51.912;4.494;2023-07-31T07:20:19;2.65;;;1.67;;
21110;SDS011;10713;51.912;4.494;2023-07-31T07:22:45;4.45;;;1.98;;
21110;SDS011;10713;51.912;4.494;2023-07-31T07:25:10;6.10;;;1.90;;
21110;SDS011;10713;51.912;4.494;2023-07-31T07:27:36;5.53;;;1.92;;
21110;SDS011;10713;51.912;4.494;2023-07-31T07:30:01;3.53;;;2.28;;
21110;SDS011;10713;51.912;4.494;2023-07-31T07:32:27;2.60;;;1.45;;
21110;SDS011;10713;51.912;4.494;2023-07-31T07:34:52;3.67;;;1.45;;
21110;SDS011;10713;51.912;4.494;2023-07-31T07:37:18;4.60;;;2.05;;
21110;SDS011;10713;51.912;4.494;2023-07-31T07:39:43;4.50;;;1.88;;
21110;SDS011;10713;51.912;4.494;2023-07-31T07:42:09;4.05;;;1.70;;
21110;SDS011;10713;51.912;4.494;2023-07-31T07:44:34;3.83;;;1.30;;
21110;SDS011;10713;51.912;4.494;2023-07-31T07:46:59;4.38;;;1.30;;
21110;SDS011;10713;51.912;4.494;2023-07-31T07:49:25;4.00;;;1.45;;
21110;SDS011;10713;51.912;4.494;2023-07-31T07:51:50;2.55;;;1.42;;
21110;SDS011;10713;51.912;4.494;2023-07-31T07:54:16;1.67;;;1.10;;
21110;SDS011;10713;51.912;4.494;2023-07-31T07:56:46;1.95;;;1.38;;
21110;SDS011;10713;51.912;4.494;2023-07-31T07:59:11;4.30;;;1.20;;
21110;SDS011;10713;51.912;4.494;2023-07-31T08:01:36;2.10;;;1.20;;
21110;SDS011;10713;51.912;4.494;2023-07-31T08:04:02;1.48;;;1.08;;
21110;SDS011;10713;51.912;4.494;2023-07-31T08:06:27;12.70;;;2.10;;
21110;SDS011;10713;51.912;4.494;2023-07-31T08:08:54;2.05;;;1.00;;
21110;SDS011;10713;51.912;4.494;2023-07-31T08:11:20;3.08;;;1.10;;
21110;SDS011;10713;51.912;4.494;2023-07-31T08:13:45;1.80;;;0.90;;
21110;SDS011;10713;51.912;4.494;2023-07-31T08:16:11;4.15;;;1.17;;
21110;SDS011;10713;51.912;4.494;2023-07-31T08:18:36;3.78;;;1.08;;
21110;SDS011;10713;51.912;4.494;2023-07-31T08:21:02;2.88;;;1.17;;
21110;SDS011;10713;51.912;4.494;2023-07-31T08:23:28;2.58;;;1.33;;
21110;SDS011;10713;51.912;4.494;2023-07-31T08:25:53;2.60;;;1.33;;
21110;SDS011;10713;51.912;4.494;2023-07-31T08:28:18;4.60;;;1.42;;
21110;SDS011;10713;51.912;4.494;2023-07-31T08:30:44;2.95;;;1.08;;
21110;SDS011;10713;51.912;4.494;2023-07-31T08:33:10;2.10;;;1.20;;
21110;SDS011;10713;51.912;4.494;2023-07-31T08:35:35;1.13;;;0.70;;
21110;SDS011;10713;51.912;4.494;2023-07-31T08:38:01;5.07;;;1.25;;
21110;SDS011;10713;51.912;4.494;2023-07-31T08:40:26;7.05;;;1.30;;
21110;SDS011;10713;51.912;4.494;2023-07-31T08:42:53;2.42;;;1.20;;
21110;SDS011;10713;51.912;4.494;2023-07-31T08:45:21;1.50;;;1.00;;
21110;SDS011;10713;51.912;4.494;2023-07-31T08:47:50;3.03;;;0.98;;
21110;SDS011;10713;51.912;4.494;2023-07-31T08:50:20;1.50;;;0.90;;
21110;SDS011;10713;51.912;4.494;2023-07-31T08:52:46;1.33;;;0.73;;
21110;SDS011;10713;51.912;4.494;2023-07-31T08:55:13;2.35;;;0.88;;
21110;SDS011;10713;51.912;4.494;2023-07-31T08:57:39;2.40;;;0.85;;
21110;SDS011;10713;51.912;4.494;2023-07-31T09:00:06;4.00;;;1.65;;
21110;SDS011;10713;51.912;4.494;2023-07-31T09:02:46;2.45;;;1.20;;
21110;SDS011;10713;51.912;4.494;2023-07-31T09:05:17;4.30;;;1.50;;
21110;SDS011;10713;51.912;4.494;2023-07-31T09:07:44;2.63;;;1.55;;
21110;SDS011;10713;51.912;4.494;2023-07-31T09:10:13;6.13;;;2.20;;
21110;SDS011;10713;51.912;4.494;2023-07-31T09:12:38;1.65;;;1.30;;
21110;SDS011;10713;51.912;4.494;2023-07-31T09:15:04;9.10;;;1.65;;
21110;SDS011;10713;51.912;4.494;2023-07-31T09:17:31;2.50;;;1.50;;
21110;SDS011;10713;51.912;4.494;2023-07-31T09:19:58;2.97;;;1.60;;
21110;SDS011;10713;51.912;4.494;2023-07-31T09:22:43;3.05;;;1.27;;
21110;SDS011;10713;51.912;4.494;2023-07-31T09:25:16;4.03;;;1.58;;
21110;SDS011;10713;51.912;4.494;2023-07-31T09:27:46;7.13;;;2.00;;
21110;SDS011;10713;51.912;4.494;2023-07-31T09:30:15;4.25;;;1.90;;
21110;SDS011;10713;51.912;4.494;2023-07-31T09:32:43;3.58;;;1.40;;
21110;SDS011;10713;51.912;4.494;2023-07-31T09:37:53;4.78;;;1.50;;
21110;SDS011;10713;51.912;4.494;2023-07-31T09:42:59;2.72;;;1.48;;
21110;SDS011;10713;51.912;4.494;2023-07-31T09:45:29;10.32;;;1.52;;
21110;SDS011;10713;51.912;4.494;2023-07-31T09:47:55;3.35;;;1.23;;
21110;SDS011;10713;51.912;4.494;2023-07-31T09:50:22;2.22;;;1.25;;
21110;SDS011;10713;51.912;4.494;2023-07-31T09:52:49;2.30;;;1.30;;
21110;SDS011;10713;51.912;4.494;2023-07-31T09:55:16;5.82;;;1.40;;
21110;SDS011;10713;51.912;4.494;2023-07-31T09:57:43;6.93;;;1.55;;
21110;SDS011;10713;51.912;4.494;2023-07-31T10:00:11;3.67;;;1.40;;
21110;SDS011;10713;51.912;4.494;2023-07-31T10:02:38;2.88;;;1.08;;
21110;SDS011;10713;51.912;4.494;2023-07-31T10:05:04;4.13;;;1.20;;
21110;SDS011;10713;51.912;4.494;2023-07-31T10:07:30;2.10;;;1.33;;
21110;SDS011;10713;51.912;4.494;2023-07-31T10:09:59;1.88;;;1.23;;
21110;SDS011;10713;51.912;4.494;2023-07-31T10:12:26;3.58;;;1.17;;
21110;SDS011;10713;51.912;4.494;2023-07-31T10:14:55;5.93;;;1.90;;
21110;SDS011;10713;51.912;4.494;2023-07-31T10:17:22;2.17;;;1.20;;
21110;SDS011;10713;51.912;4.494;2023-07-31T10:19:48;7.05;;;1.50;;
21110;SDS011;10713;51.912;4.494;2023-07-31T10:22:14;3.80;;;1.60;;
21110;SDS011;10713;51.912;4.494;2023-07-31T10:24:41;3.95;;;2.00;;
21110;SDS011;10713;51.912;4.494;2023-07-31T10:27:08;3.63;;;2.13;;
21110;SDS011;10713;51.912;4.494;2023-07-31T10:29:34;6.40;;;2.05;;
21110;SDS011;10713;51.912;4.494;2023-07-31T10:32:01;6.60;;;2.10;;
21110;SDS011;10713;51.912;4.494;2023-07-31T10:34:27;6.20;;;2.20;;
21110;SDS011;10713;51.912;4.494;2023-07-31T10:39:55;5.72;;;2.05;;
21110;SDS011;10713;51.912;4.494;2023-07-31T10:42:26;6.30;;;2.15;;
21110;SDS011;10713;51.912;4.494;2023-07-31T10:45:02;9.50;;;2.85;;
21110;SDS011;10713;51.912;4.494;2023-07-31T10:47:29;6.18;;;2.17;;
21110;SDS011;10713;51.912;4.494;2023-07-31T10:50:11;8.63;;;2.40;;
21110;SDS011;10713;51.912;4.494;2023-07-31T10:52:52;8.13;;;2.88;;
21110;SDS011;10713;51.912;4.494;2023-07-31T10:55:24;8.20;;;2.63;;
21110;SDS011;10713;51.912;4.494;2023-07-31T10:57:54;7.30;;;2.85;;
21110;SDS011;10713;51.912;4.494;2023-07-31T11:00:21;5.65;;;2.85;;
21110;SDS011;10713;51.912;4.494;2023-07-31T11:02:56;9.45;;;3.53;;
21110;SDS011;10713;51.912;4.494;2023-07-31T11:05:40;6.45;;;3.60;;
21110;SDS011;10713;51.912;4.494;2023-07-31T11:08:19;8.60;;;4.15;;
21110;SDS011;10713;51.912;4.494;2023-07-31T11:10:46;14.48;;;3.92;;
21110;SDS011;10713;51.912;4.494;2023-07-31T11:13:12;9.73;;;4.03;;
21110;SDS011;10713;51.912;4.494;2023-07-31T11:15:38;13.85;;;4.43;;
21110;SDS011;10713;51.912;4.494;2023-07-31T11:18:04;10.88;;;4.40;;
21110;SDS011;10713;51.912;4.494;2023-07-31T11:20:31;14.15;;;4.35;;
21110;SDS011;10713;51.912;4.494;2023-07-31T11:23:05;10.43;;;4.47;;
21110;SDS011;10713;51.912;4.494;2023-07-31T11:25:32;6.13;;;3.58;;
21110;SDS011;10713;51.912;4.494;2023-07-31T11:28:04;26.95;;;6.25;;
21110;SDS011;10713;51.912;4.494;2023-07-31T11:30:30;10.48;;;4.10;;
21110;SDS011;10713;51.912;4.494;2023-07-31T11:32:56;5.80;;;3.78;;
21110;SDS011;10713;51.912;4.494;2023-07-31T11:35:21;11.65;;;4.22;;
21110;SDS011;10713;51.912;4.494;2023-07-31T11:37:47;21.08;;;4.05;;
21110;SDS011;10713;51.912;4.494;2023-07-31T11:40:13;8.27;;;2.90;;
21110;SDS011;10713;51.912;4.494;2023-07-31T11:42:39;8.63;;;3.00;;
21110;SDS011;10713;51.912;4.494;2023-07-31T11:45:06;3.17;;;2.40;;
21110;SDS011;10713;51.912;4.494;2023-07-31T11:47:37;9.32;;;3.00;;
21110;SDS011;10713;51.912;4.494;2023-07-31T11:50:03;6.60;;;2.97;;
21110;SDS011;10713;51.912;4.494;2023-07-31T11:52:31;7.85;;;3.30;;
21110;SDS011;10713;51.912;4.494;2023-07-31T11:55:00;8.00;;;3.47;;
21110;SDS011;10713;51.912;4.494;2023-07-31T11:57:26;6.90;;;3.10;;
21110;SDS011;10713;51.912;4.494;2023-07-31T11:59:53;6.53;;;2.40;;
21110;SDS011;10713;51.912;4.494;2023-07-31T12:02:18;3.83;;;2.05;;
21110;SDS011;10713;51.912;4.494;2023-07-31T12:04:45;4.30;;;2.40;;
21110;SDS011;10713;51.912;4.494;2023-07-31T12:07:12;6.05;;;2.40;;
21110;SDS011;10713;51.912;4.494;2023-07-31T12:09:37;6.45;;;2.38;;
21110;SDS011;10713;51.912;4.494;2023-07-31T12:12:03;4.53;;;2.13;;
21110;SDS011;10713;51.912;4.494;2023-07-31T12:14:33;6.65;;;2.63;;
21110;SDS011;10713;51.912;4.494;2023-07-31T12:16:59;7.55;;;2.72;;
21110;SDS011;10713;51.912;4.494;2023-07-31T12:19:28;5.93;;;3.10;;
21110;SDS011;10713;51.912;4.494;2023-07-31T12:21:58;3.90;;;2.20;;
21110;SDS011;10713;51.912;4.494;2023-07-31T12:24:26;3.40;;;1.90;;
21110;SDS011;10713;51.912;4.494;2023-07-31T12:26:51;14.23;;;3.50;;
21110;SDS011;10713;51.912;4.494;2023-07-31T12:29:17;9.98;;;2.60;;
21110;SDS011;10713;51.912;4.494;2023-07-31T12:31:43;6.65;;;2.67;;
21110;SDS011;10713;51.912;4.494;2023-07-31T12:34:18;6.97;;;2.53;;
21110;SDS011;10713;51.912;4.494;2023-07-31T12:36:45;5.63;;;2.28;;
21110;SDS011;10713;51.912;4.494;2023-07-31T12:39:12;4.88;;;1.92;;
21110;SDS011;10713;51.912;4.494;2023-07-31T12:41:38;3.47;;;2.15;;
21110;SDS011;10713;51.912;4.494;2023-07-31T12:44:03;3.97;;;1.40;;
21110;SDS011;10713;51.912;4.494;2023-07-31T12:46:29;2.38;;;1.30;;
21110;SDS011;10713;51.912;4.494;2023-07-31T12:48:54;4.28;;;1.70;;
21110;SDS011;10713;51.912;4.494;2023-07-31T12:51:20;2.28;;;1.40;;
21110;SDS011;10713;51.912;4.494;2023-07-31T12:53:46;3.15;;;1.42;;
21110;SDS011;10713;51.912;4.494;2023-07-31T12:56:11;3.40;;;1.60;;
21110;SDS011;10713;51.912;4.494;2023-07-31T12:58:36;3.75;;;1.58;;
21110;SDS011;10713;51.912;4.494;2023-07-31T13:01:02;3.30;;;1.73;;
21110;SDS011;10713;51.912;4.494;2023-07-31T13:03:27;3.15;;;1.35;;
21110;SDS011;10713;51.912;4.494;2023-07-31T13:05:52;3.15;;;1.42;;
21110;SDS011;10713;51.912;4.494;2023-07-31T13:08:18;2.85;;;1.40;;
21110;SDS011;10713;51.912;4.494;2023-07-31T13:10:43;3.28;;;1.50;;
21110;SDS011;10713;51.912;4.494;2023-07-31T13:13:09;5.10;;;1.77;;
21110;SDS011;10713;51.912;4.494;2023-07-31T13:15:35;3.05;;;1.83;;
21110;SDS011;10713;51.912;4.494;2023-07-31T13:18:00;3.35;;;1.73;;
21110;SDS011;10713;51.912;4.494;2023-07-31T13:20:26;3.63;;;1.80;;
21110;SDS011;10713;51.912;4.494;2023-07-31T13:22:51;2.72;;;1.65;;
21110;SDS011;10713;51.912;4.494;2023-07-31T13:25:16;4.75;;;2.38;;
21110;SDS011;10713;51.912;4.494;2023-07-31T13:27:42;3.28;;;1.80;;
21110;SDS011;10713;51.912;4.494;2023-07-31T13:30:07;2.38;;;1.80;;
21110;SDS011;10713;51.912;4.494;2023-07-31T13:32:33;2.88;;;1.40;;
21110;SDS011;10713;51.912;4.494;2023-07-31T13:34:58;2.08;;;1.35;;
21110;SDS011;10713;51.912;4.494;2023-07-31T13:37:24;3.15;;;1.52;;
21110;SDS011;10713;51.912;4.494;2023-07-31T13:39:49;3.90;;;1.60;;
21110;SDS011;10713;51.912;4.494;2023-07-31T13:42:14;3.22;;;1.70;;
21110;SDS011;10713;51.912;4.494;2023-07-31T13:44:40;1.90;;;1.50;;
21110;SDS011;10713;51.912;4.494;2023-07-31T13:47:06;2.70;;;1.92;;
21110;SDS011;10713;51.912;4.494;2023-07-31T13:49:32;2.97;;;1.77;;
21110;SDS011;10713;51.912;4.494;2023-07-31T13:51:59;4.68;;;1.55;;
21110;SDS011;10713;51.912;4.494;2023-07-31T13:54:25;3.45;;;1.80;;
21110;SDS011;10713;51.912;4.494;2023-07-31T13:56:51;1.80;;;1.30;;
21110;SDS011;10713;51.912;4.494;2023-07-31T13:59:16;2.13;;;1.45;;
21110;SDS011;10713;51.912;4.494;2023-07-31T14:01:42;3.30;;;1.40;;
21110;SDS011;10713;51.912;4.494;2023-07-31T14:04:08;5.90;;;1.70;;
21110;SDS011;10713;51.912;4.494;2023-07-31T14:06:34;4.43;;;1.60;;
21110;SDS011;10713;51.912;4.494;2023-07-31T14:08:59;2.20;;;1.58;;
21110;SDS011;10713;51.912;4.494;2023-07-31T14:11:25;1.60;;;1.17;;
21110;SDS011;10713;51.912;4.494;2023-07-31T14:13:51;5.85;;;1.30;;
21110;SDS011;10713;51.912;4.494;2023-07-31T14:16:16;4.00;;;1.80;;
21110;SDS011;10713;51.912;4.494;2023-07-31T14:18:42;5.50;;;2.20;;
21110;SDS011;10713;51.912;4.494;2023-07-31T14:21:08;4.03;;;2.50;;
21110;SDS011;10713;51.912;4.494;2023-07-31T14:23:33;4.88;;;2.65;;
21110;SDS011;10713;51.912;4.494;2023-07-31T14:25:59;4.72;;;2.83;;
21110;SDS011;10713;51.912;4.494;2023-07-31T14:28:24;5.35;;;2.50;;
21110;SDS011;10713;51.912;4.494;2023-07-31T14:30:49;5.45;;;2.80;;
21110;SDS011;10713;51.912;4.494;2023-07-31T14:33:15;4.03;;;2.53;;
21110;SDS011;10713;51.912;4.494;2023-07-31T14:35:40;4.68;;;2.40;;
21110;SDS011;10713;51.912;4.494;2023-07-31T14:38:05;5.72;;;2.30;;
21110;SDS011;10713;51.912;4.494;2023-07-31T14:40:31;6.25;;;2.50;;
21110;SDS011;10713;51.912;4.494;2023-07-31T14:42:57;2.95;;;1.88;;
21110;SDS011;10713;51.912;4.494;2023-07-31T14:45:22;4.15;;;2.08;;
21110;SDS011;10713;51.912;4.494;2023-07-31T14:47:47;5.35;;;2.20;;
21110;SDS011;10713;51.912;4.494;2023-07-31T14:50:13;3.50;;;1.60;;
21110;SDS011;10713;51.912;4.494;2023-07-31T14:52:38;5.75;;;1.95;;